createdAt,value
2022-10-24T00:00:47.503Z,16.30
2022-10-24T00:03:20.135Z,16.30
2022-10-24T00:05:53.164Z,16.30
2022-10-24T00:08:25.757Z,16.20
2022-10-24T00:10:58.447Z,16.20
2022-10-24T00:13:31.151Z,16.20
2022-10-24T00:16:03.847Z,16.20
2022-10-24T00:18:36.537Z,16.30
2022-10-24T00:21:09.789Z,16.30
2022-10-24T00:23:42.543Z,16.30
2022-10-24T00:26:17.034Z,16.30
2022-10-24T00:28:49.737Z,16.30
2022-10-24T00:31:22.797Z,16.30
2022-10-24T00:33:57.148Z,16.30
2022-10-24T00:36:29.949Z,16.30
2022-10-24T00:39:02.630Z,16.30
2022-10-24T00:41:39.113Z,16.30
2022-10-24T00:44:16.186Z,16.30
2022-10-24T00:46:54.180Z,16.30
2022-10-24T00:49:32.540Z,16.30
2022-10-24T00:52:09.997Z,16.30
2022-10-24T00:54:43.750Z,16.30
2022-10-24T00:57:22.126Z,16.30
2022-10-24T00:59:59.906Z,16.30
2022-10-24T01:02:32.822Z,16.30
2022-10-24T01:05:07.263Z,16.30
2022-10-24T01:07:49.604Z,16.30
2022-10-24T01:10:39.175Z,16.30
2022-10-24T01:13:36.869Z,16.30
2022-10-24T01:16:32.708Z,16.30
2022-10-24T01:19:35.944Z,16.30
2022-10-24T01:22:17.803Z,16.20
2022-10-24T01:25:13.421Z,16.20
2022-10-24T01:28:02.322Z,16.20
2022-10-24T01:30:45.988Z,16.20
2022-10-24T01:33:37.693Z,16.20
2022-10-24T01:36:17.530Z,16.10
2022-10-24T01:39:00.012Z,16.10
2022-10-24T01:41:33.496Z,16.10
2022-10-24T01:44:16.486Z,16.10
2022-10-24T01:46:55.630Z,16.10
2022-10-24T01:49:34.022Z,16.10
2022-10-24T01:54:48.343Z,16.10
2022-10-24T01:57:20.906Z,16.10
2022-10-24T01:59:53.368Z,16.00
2022-10-24T02:02:36.517Z,16.00
2022-10-24T02:05:32.201Z,16.00
2022-10-24T02:08:16.620Z,16.00
2022-10-24T02:10:53.670Z,15.90
2022-10-24T02:13:33.766Z,16.00
2022-10-24T02:16:07.064Z,15.90
2022-10-24T02:18:40.960Z,15.90
2022-10-24T02:21:38.820Z,15.90
2022-10-24T02:24:22.401Z,15.90
2022-10-24T02:27:07.485Z,15.90
2022-10-24T02:29:45.952Z,15.90
2022-10-24T02:32:27.002Z,15.80
2022-10-24T02:35:00.516Z,15.80
2022-10-24T02:37:36.536Z,15.80
2022-10-24T02:40:12.840Z,15.80
2022-10-24T02:42:48.334Z,15.80
2022-10-24T02:45:23.763Z,15.80
2022-10-24T02:48:02.904Z,15.80
2022-10-24T02:50:36.476Z,15.70
2022-10-24T02:53:14.308Z,15.70
2022-10-24T02:55:47.154Z,15.70
2022-10-24T02:58:19.875Z,15.70
2022-10-24T03:00:52.334Z,15.70
2022-10-24T03:03:24.842Z,15.60
2022-10-24T03:05:57.361Z,15.60
2022-10-24T03:08:30.062Z,15.60
2022-10-24T03:11:02.588Z,15.60
2022-10-24T03:13:35.310Z,15.60
2022-10-24T03:16:10.349Z,15.60
2022-10-24T03:18:45.718Z,15.60
2022-10-24T03:21:18.237Z,15.60
2022-10-24T03:23:51.113Z,15.60
2022-10-24T03:26:23.671Z,15.60
2022-10-24T03:28:56.215Z,15.50
2022-10-24T03:31:30.927Z,15.50
2022-10-24T03:34:03.505Z,15.40
2022-10-24T03:36:36.024Z,15.50
2022-10-24T03:39:08.671Z,15.50
2022-10-24T03:41:41.308Z,15.60
2022-10-24T03:44:13.787Z,15.50
2022-10-24T03:46:46.354Z,15.50
2022-10-24T03:49:19.056Z,15.60
2022-10-24T03:51:51.762Z,15.50
2022-10-24T03:54:24.680Z,15.50
2022-10-24T03:56:57.239Z,15.50
2022-10-24T03:59:29.664Z,15.50
2022-10-24T04:02:03.172Z,15.50
2022-10-24T04:04:35.838Z,15.50
2022-10-24T04:07:08.626Z,15.50
2022-10-24T04:09:41.204Z,15.50
2022-10-24T04:12:13.907Z,15.50
2022-10-24T04:14:46.435Z,15.60
2022-10-24T04:17:19.184Z,15.50
2022-10-24T04:19:51.646Z,15.40
2022-10-24T04:22:24.103Z,15.40
2022-10-24T04:24:56.536Z,15.30
2022-10-24T04:27:29.041Z,15.30
2022-10-24T04:30:01.591Z,15.30
2022-10-24T04:32:34.079Z,15.30
2022-10-24T04:35:08.110Z,15.30
2022-10-24T04:37:40.668Z,15.20
2022-10-24T04:40:13.122Z,15.30
2022-10-24T04:42:45.935Z,15.20
2022-10-24T04:45:19.252Z,15.20
2022-10-24T04:47:51.753Z,15.10
2022-10-24T04:50:24.439Z,15.10
2022-10-24T04:52:57.152Z,15.10
2022-10-24T04:55:29.856Z,15.10
2022-10-24T04:58:02.865Z,15.10
2022-10-24T05:00:35.794Z,15.10
2022-10-24T05:03:08.664Z,15.10
2022-10-24T05:05:41.430Z,15.20
2022-10-24T05:08:14.047Z,15.20
2022-10-24T05:10:46.971Z,15.10
2022-10-24T05:13:19.465Z,15.10
2022-10-24T05:15:52.058Z,15.10
2022-10-24T05:18:24.538Z,15.20
2022-10-24T05:20:59.456Z,15.20
2022-10-24T05:23:32.025Z,15.10
2022-10-24T05:26:04.886Z,15.10
2022-10-24T05:28:37.391Z,15.10
2022-10-24T05:31:09.911Z,15.00
2022-10-24T05:33:43.000Z,15.00
2022-10-24T05:36:15.587Z,15.00
2022-10-24T05:38:48.173Z,15.00
2022-10-24T05:41:20.674Z,15.00
2022-10-24T05:43:53.177Z,15.00
2022-10-24T05:46:26.036Z,15.10
2022-10-24T05:48:58.679Z,15.10
2022-10-24T05:51:31.491Z,15.10
2022-10-24T05:54:04.427Z,15.20
2022-10-24T05:56:36.965Z,15.20
2022-10-24T05:59:09.756Z,15.20
2022-10-24T06:01:42.756Z,15.20
2022-10-24T06:04:15.495Z,15.20
2022-10-24T06:06:48.279Z,15.20
2022-10-24T06:09:20.951Z,15.30
2022-10-24T06:11:53.576Z,15.20
2022-10-24T06:14:26.034Z,15.20
2022-10-24T06:16:58.575Z,15.20
2022-10-24T06:19:31.194Z,15.20
2022-10-24T06:22:04.546Z,15.20
2022-10-24T06:24:38.679Z,15.20
2022-10-24T06:27:11.351Z,15.30
2022-10-24T06:29:44.178Z,15.30
2022-10-24T06:32:16.738Z,15.30
2022-10-24T06:34:49.394Z,15.30
2022-10-24T06:37:22.067Z,15.30
2022-10-24T06:39:54.674Z,15.30
2022-10-24T06:42:27.353Z,15.30
2022-10-24T06:47:37.830Z,15.40
2022-10-24T06:50:10.709Z,15.40
2022-10-24T06:52:43.449Z,15.40
2022-10-24T06:55:16.236Z,15.40
2022-10-24T06:57:48.951Z,15.40
2022-10-24T07:00:21.684Z,15.40
2022-10-24T07:02:54.421Z,15.40
2022-10-24T07:05:27.178Z,15.40
2022-10-24T07:07:59.941Z,15.40
2022-10-24T07:10:32.643Z,15.40
2022-10-24T07:13:05.200Z,15.70
2022-10-24T07:15:37.761Z,15.40
2022-10-24T07:18:14.856Z,15.40
2022-10-24T07:20:48.199Z,15.40
2022-10-24T07:23:20.785Z,15.50
2022-10-24T07:25:53.380Z,15.50
2022-10-24T07:28:26.142Z,15.60
2022-10-24T07:30:59.032Z,15.60
2022-10-24T07:33:33.033Z,15.70
2022-10-24T07:36:06.736Z,15.70
2022-10-24T07:38:39.545Z,15.80
2022-10-24T07:41:12.485Z,15.80
2022-10-24T07:43:46.578Z,15.80
2022-10-24T07:46:19.988Z,15.80
2022-10-24T07:48:56.113Z,15.80
2022-10-24T07:51:30.364Z,15.80
2022-10-24T07:54:03.082Z,15.80
2022-10-24T07:56:35.989Z,15.90
2022-10-24T07:59:09.733Z,15.90
2022-10-24T08:01:46.504Z,15.90
2022-10-24T08:04:20.245Z,15.90
2022-10-24T08:06:52.793Z,15.90
2022-10-24T08:09:27.004Z,16.00
2022-10-24T08:11:59.496Z,16.00
2022-10-24T08:14:32.202Z,16.10
2022-10-24T08:17:05.581Z,16.10
2022-10-24T08:19:44.026Z,16.30
2022-10-24T08:22:17.392Z,16.30
2022-10-24T08:24:49.953Z,16.40
2022-10-24T08:27:22.530Z,16.40
2022-10-24T08:29:55.286Z,16.50
2022-10-24T08:32:27.886Z,16.50
2022-10-24T08:35:00.720Z,16.60
2022-10-24T08:40:19.430Z,16.40
2022-10-24T08:42:52.019Z,16.70
2022-10-24T08:45:35.927Z,16.80
2022-10-24T08:48:14.162Z,16.80
2022-10-24T08:50:52.105Z,16.90
2022-10-24T08:53:29.334Z,16.90
2022-10-24T08:56:02.253Z,17.00
2022-10-24T08:58:38.529Z,16.90
2022-10-24T09:01:22.156Z,16.90
2022-10-24T09:03:58.460Z,16.90
2022-10-24T09:06:33.088Z,16.90
2022-10-24T09:09:14.343Z,17.00
2022-10-24T09:11:51.006Z,17.00
2022-10-24T09:14:30.497Z,17.10
2022-10-24T09:17:15.692Z,17.10
2022-10-24T09:20:00.480Z,17.20
2022-10-24T09:22:39.449Z,17.20
2022-10-24T09:25:18.836Z,17.20
2022-10-24T09:27:52.634Z,17.20
2022-10-24T09:30:31.398Z,17.20
2022-10-24T09:33:27.852Z,17.20
2022-10-24T09:36:02.855Z,17.30
2022-10-24T09:38:38.426Z,17.20
2022-10-24T09:41:29.552Z,17.20
2022-10-24T09:44:02.562Z,17.30
2022-10-24T09:46:45.617Z,17.30
2022-10-24T09:49:22.903Z,17.40
2022-10-24T09:52:26.452Z,17.40
2022-10-24T09:55:19.147Z,17.40
2022-10-24T09:57:57.294Z,17.50
2022-10-24T10:00:33.830Z,17.50
2022-10-24T10:03:24.670Z,17.60
2022-10-24T10:06:01.412Z,17.60
2022-10-24T10:08:36.426Z,17.60
2022-10-24T10:11:12.793Z,17.70
2022-10-24T10:13:53.531Z,17.70
2022-10-24T10:16:26.729Z,17.60
2022-10-24T10:19:06.735Z,17.60
2022-10-24T10:21:56.648Z,17.60
2022-10-24T10:24:38.764Z,17.50
2022-10-24T10:27:30.633Z,17.50
2022-10-24T10:30:21.880Z,17.50
2022-10-24T10:33:10.150Z,17.50
2022-10-24T10:36:05.860Z,17.50
2022-10-24T10:38:44.207Z,17.60
2022-10-24T10:41:35.281Z,17.50
2022-10-24T10:44:39.084Z,17.50
2022-10-24T10:47:27.749Z,17.50
2022-10-24T10:50:00.691Z,17.40
2022-10-24T10:52:45.835Z,17.40
2022-10-24T10:55:34.646Z,17.50
2022-10-24T11:01:17.088Z,17.40
2022-10-24T11:04:06.288Z,17.40
2022-10-24T11:09:46.058Z,17.40
2022-10-24T11:12:31.192Z,17.40
2022-10-24T11:15:08.840Z,17.50
2022-10-24T11:18:06.225Z,17.50
2022-10-24T11:21:00.550Z,17.50
2022-10-24T11:26:26.988Z,17.50
2022-10-24T11:29:04.534Z,17.50
2022-10-24T11:31:45.949Z,17.50
2022-10-24T11:34:32.853Z,17.40
2022-10-24T11:37:19.352Z,17.50
2022-10-24T11:40:02.353Z,17.60
2022-10-24T11:42:57.429Z,17.70
2022-10-24T11:45:40.056Z,17.80
2022-10-24T11:48:18.825Z,18.00
2022-10-24T11:51:11.389Z,18.10
2022-10-24T11:54:00.149Z,18.30
2022-10-24T11:56:44.181Z,18.40
2022-10-24T11:59:24.361Z,18.60
2022-10-24T12:01:59.106Z,18.80
2022-10-24T12:05:02.120Z,18.90
2022-10-24T12:08:00.357Z,19.10
2022-10-24T12:10:41.784Z,19.20
2022-10-24T12:13:38.160Z,19.20
2022-10-24T12:16:32.794Z,19.10
2022-10-24T12:19:12.640Z,19.10
2022-10-24T12:21:51.634Z,19.10
2022-10-24T12:24:30.501Z,19.00
2022-10-24T12:27:08.410Z,19.00
2022-10-24T12:29:40.992Z,19.00
2022-10-24T12:32:41.695Z,19.10
2022-10-24T12:35:31.906Z,19.10
2022-10-24T12:38:16.774Z,19.70
2022-10-24T12:40:55.884Z,19.10
2022-10-24T12:43:34.383Z,19.20
2022-10-24T12:46:28.279Z,19.20
2022-10-24T12:49:01.678Z,19.30
2022-10-24T12:51:37.253Z,19.40
2022-10-24T12:54:13.240Z,19.60
2022-10-24T12:56:54.127Z,19.80
2022-10-24T12:59:31.984Z,20.00
2022-10-24T13:02:15.102Z,20.00
2022-10-24T13:05:19.281Z,20.00
2022-10-24T13:08:18.031Z,20.20
2022-10-24T13:11:14.366Z,20.30
2022-10-24T13:13:58.218Z,20.50
2022-10-24T13:16:59.107Z,20.70
2022-10-24T13:19:32.719Z,20.80
2022-10-24T13:22:05.633Z,20.80
2022-10-24T13:24:40.917Z,20.80
2022-10-24T13:27:15.238Z,21.10
2022-10-24T13:29:51.531Z,21.30
2022-10-24T13:32:31.154Z,21.60
2022-10-24T13:35:06.353Z,21.80
2022-10-24T13:37:50.308Z,22.10
2022-10-24T13:40:27.560Z,22.30
2022-10-24T13:43:07.535Z,22.60
2022-10-24T13:45:45.273Z,22.80
2022-10-24T13:48:21.319Z,23.20
2022-10-24T13:51:05.364Z,23.10
2022-10-24T13:53:51.466Z,23.30
2022-10-24T13:56:24.168Z,23.40
2022-10-24T13:59:00.356Z,23.40
2022-10-24T14:01:37.058Z,23.50
2022-10-24T14:04:09.760Z,23.50
2022-10-24T14:06:44.550Z,23.50
2022-10-24T14:09:20.252Z,23.60
2022-10-24T14:11:57.047Z,23.60
2022-10-24T14:14:40.194Z,23.70
2022-10-24T14:17:31.220Z,23.70
2022-10-24T14:20:21.352Z,23.70
2022-10-24T14:22:54.906Z,23.70
2022-10-24T14:25:36.759Z,23.50
2022-10-24T14:28:17.921Z,23.50
2022-10-24T14:30:59.061Z,23.50
2022-10-24T14:33:42.481Z,23.60
2022-10-24T14:36:15.289Z,23.60
2022-10-24T14:38:55.541Z,23.60
2022-10-24T14:41:34.469Z,23.60
2022-10-24T14:44:11.239Z,23.50
2022-10-24T14:46:47.113Z,23.50
2022-10-24T14:49:29.153Z,23.50
2022-10-24T14:52:13.300Z,23.40
2022-10-24T14:55:07.085Z,23.30
2022-10-24T14:57:40.108Z,23.20
2022-10-24T15:00:24.287Z,23.00
2022-10-24T15:02:59.171Z,22.90
2022-10-24T15:05:34.135Z,22.90
2022-10-24T15:08:22.188Z,22.80
2022-10-24T15:11:16.913Z,22.70
2022-10-24T15:14:05.822Z,22.60
2022-10-24T15:16:42.693Z,22.50
2022-10-24T15:19:19.434Z,22.40
2022-10-24T15:21:52.010Z,22.40
2022-10-24T15:24:26.921Z,22.40
2022-10-24T15:27:27.811Z,22.50
2022-10-24T15:30:00.752Z,22.50
2022-10-24T15:32:33.302Z,22.50
2022-10-24T15:35:06.595Z,22.60
2022-10-24T15:37:39.301Z,22.70
2022-10-24T15:40:21.882Z,22.70
2022-10-24T15:42:54.535Z,22.70
2022-10-24T15:45:27.873Z,22.70
2022-10-24T15:48:00.426Z,22.60
2022-10-24T15:50:35.064Z,22.60
2022-10-24T15:53:08.007Z,22.50
2022-10-24T15:55:40.499Z,22.40
2022-10-24T15:58:14.898Z,22.40
2022-10-24T16:00:48.484Z,22.40
2022-10-24T16:03:23.811Z,22.40
2022-10-24T16:05:58.377Z,22.40
2022-10-24T16:08:31.851Z,22.40
2022-10-24T16:11:07.654Z,22.40
2022-10-24T16:13:43.374Z,22.30
2022-10-24T16:16:16.070Z,22.20
2022-10-24T16:18:48.889Z,22.10
2022-10-24T16:21:22.098Z,22.10
2022-10-24T16:23:56.028Z,22.00
2022-10-24T16:26:28.734Z,22.00
2022-10-24T16:29:01.738Z,21.90
2022-10-24T16:31:35.148Z,21.90
2022-10-24T16:34:09.277Z,21.90
2022-10-24T16:36:43.215Z,22.00
2022-10-24T16:39:16.626Z,22.00
2022-10-24T16:41:49.847Z,22.00
2022-10-24T16:44:22.882Z,22.00
2022-10-24T16:46:55.557Z,21.90
2022-10-24T16:49:28.782Z,21.90
2022-10-24T16:52:01.561Z,21.90
2022-10-24T16:54:34.486Z,21.90
2022-10-24T16:57:07.388Z,21.80
2022-10-24T16:59:40.002Z,21.80
2022-10-24T17:02:14.862Z,21.80
2022-10-24T17:04:47.471Z,21.70
2022-10-24T17:07:20.422Z,21.80
2022-10-24T17:09:53.212Z,21.80
2022-10-24T17:12:27.865Z,21.70
2022-10-24T17:15:01.033Z,21.80
2022-10-24T17:17:34.082Z,21.80
2022-10-24T17:20:10.367Z,21.70
2022-10-24T17:22:45.625Z,21.70
2022-10-24T17:25:20.663Z,21.70
2022-10-24T17:27:54.101Z,21.70
2022-10-24T17:30:30.230Z,21.70
2022-10-24T17:33:04.830Z,21.60
2022-10-24T17:35:41.357Z,21.60
2022-10-24T17:38:14.691Z,21.70
2022-10-24T17:40:49.919Z,21.70
2022-10-24T17:43:26.104Z,21.70
2022-10-24T17:45:58.927Z,21.70
2022-10-24T17:48:31.576Z,21.60
2022-10-24T17:51:04.404Z,21.70
2022-10-24T17:53:37.356Z,21.60
2022-10-24T17:58:51.471Z,21.50
2022-10-24T18:01:24.529Z,21.40
2022-10-24T18:03:57.493Z,21.40
2022-10-24T18:06:30.101Z,21.40
2022-10-24T18:09:02.598Z,21.40
2022-10-24T18:11:36.146Z,21.40
2022-10-24T18:14:09.676Z,21.40
2022-10-24T18:16:43.370Z,21.30
2022-10-24T18:19:15.964Z,21.30
2022-10-24T18:21:50.115Z,21.30
2022-10-24T18:24:23.155Z,21.30
2022-10-24T18:26:56.113Z,21.20
2022-10-24T18:29:28.908Z,21.20
2022-10-24T18:32:02.602Z,21.20
2022-10-24T18:34:35.613Z,21.20
2022-10-24T18:37:09.365Z,21.20
2022-10-24T18:39:42.138Z,21.20
2022-10-24T18:42:34.167Z,21.30
2022-10-24T18:45:11.753Z,21.30
2022-10-24T18:47:45.949Z,21.30
2022-10-24T18:50:23.351Z,21.30
2022-10-24T18:52:57.975Z,21.30
2022-10-24T18:55:34.448Z,21.30
2022-10-24T18:58:17.144Z,21.30
2022-10-24T19:00:52.501Z,21.30
2022-10-24T19:03:37.264Z,21.20
2022-10-24T19:06:24.733Z,21.20
2022-10-24T19:08:57.785Z,21.20
2022-10-24T19:11:32.466Z,21.20
2022-10-24T19:14:06.272Z,21.10
2022-10-24T19:16:39.340Z,21.10
2022-10-24T19:19:17.075Z,21.10
2022-10-24T19:21:51.595Z,21.10
2022-10-24T19:24:26.009Z,21.10
2022-10-24T19:26:59.031Z,21.10
2022-10-24T19:29:32.308Z,21.20
2022-10-24T19:32:05.318Z,21.10
2022-10-24T19:34:38.002Z,21.10
2022-10-24T19:37:12.185Z,21.10
2022-10-24T19:39:46.670Z,21.10
2022-10-24T19:42:20.221Z,21.10
2022-10-24T19:44:54.505Z,21.10
2022-10-24T19:47:27.169Z,21.10
2022-10-24T19:50:00.581Z,21.10
2022-10-24T19:52:33.627Z,21.10
2022-10-24T19:55:08.587Z,21.10
2022-10-24T19:57:41.316Z,21.10
2022-10-24T20:00:14.729Z,21.10
2022-10-24T20:02:49.512Z,21.10
2022-10-24T20:05:22.364Z,21.10
2022-10-24T20:07:56.432Z,21.10
2022-10-24T20:10:29.408Z,21.10
2022-10-24T20:13:02.020Z,21.10
2022-10-24T20:15:34.695Z,21.20
2022-10-24T20:18:07.592Z,21.20
2022-10-24T20:20:40.462Z,21.20
2022-10-24T20:23:13.176Z,21.20
2022-10-24T20:25:47.961Z,21.30
2022-10-24T20:28:20.578Z,21.30
2022-10-24T20:30:53.464Z,21.30
2022-10-24T20:33:26.380Z,21.30
2022-10-24T20:36:00.274Z,21.20
2022-10-24T20:38:33.415Z,21.20
2022-10-24T20:41:06.373Z,21.20
2022-10-24T20:43:39.114Z,21.20
2022-10-24T20:46:12.405Z,21.10
2022-10-24T20:48:44.868Z,21.10
2022-10-24T20:51:19.686Z,21.10
2022-10-24T20:53:52.537Z,21.00
2022-10-24T20:56:26.988Z,21.00
2022-10-24T20:59:00.156Z,21.00
2022-10-24T21:01:33.252Z,20.90
2022-10-24T21:04:05.949Z,20.90
2022-10-24T21:06:38.597Z,20.80
2022-10-24T21:09:11.253Z,20.70
2022-10-24T21:11:43.865Z,20.60
2022-10-24T21:14:41.895Z,20.60
2022-10-24T21:17:15.770Z,20.70
2022-10-24T21:19:48.612Z,20.80
2022-10-24T21:22:21.172Z,20.80
2022-10-24T21:24:54.141Z,20.90
2022-10-24T21:27:26.775Z,20.90
2022-10-24T21:29:59.335Z,20.90
2022-10-24T21:32:32.116Z,20.90
2022-10-24T21:35:05.301Z,20.90
2022-10-24T21:37:37.899Z,20.90
2022-10-24T21:40:11.070Z,21.00
2022-10-24T21:42:43.826Z,21.00
2022-10-24T21:45:16.550Z,21.00
2022-10-24T21:47:49.251Z,21.00
2022-10-24T21:50:22.083Z,21.10
2022-10-24T21:52:54.605Z,21.10
2022-10-24T21:55:27.167Z,21.20
2022-10-24T21:57:59.667Z,21.20
2022-10-24T22:00:33.853Z,21.20
2022-10-24T22:03:08.588Z,21.20
2022-10-24T22:05:51.175Z,21.20
2022-10-24T22:08:24.599Z,21.20
2022-10-24T22:10:59.913Z,21.20
2022-10-24T22:13:32.436Z,21.20
2022-10-24T22:16:06.074Z,21.20
2022-10-24T22:18:39.464Z,21.20
2022-10-24T22:21:18.473Z,21.20
2022-10-24T22:23:51.266Z,21.20
2022-10-24T22:26:24.951Z,21.20
2022-10-24T22:28:57.871Z,21.20
2022-10-24T22:31:31.087Z,21.20
2022-10-24T22:34:04.218Z,18.80
2022-10-24T22:37:05.731Z,21.20
2022-10-24T22:39:39.000Z,21.20
2022-10-24T22:42:14.766Z,21.10
2022-10-24T22:44:51.130Z,21.10
2022-10-24T22:47:53.903Z,21.10
2022-10-24T22:50:35.222Z,21.00
2022-10-24T22:53:12.918Z,21.10
2022-10-24T22:55:55.149Z,21.20
2022-10-24T22:58:28.058Z,21.20
2022-10-24T23:01:05.865Z,21.20
2022-10-24T23:04:00.324Z,21.20
2022-10-24T23:06:51.518Z,21.20
2022-10-24T23:09:24.059Z,21.30
2022-10-24T23:11:56.993Z,21.40
2022-10-24T23:14:29.836Z,21.40
2022-10-24T23:17:02.498Z,21.40
2022-10-24T23:19:39.784Z,21.40
2022-10-24T23:22:27.996Z,21.40
2022-10-24T23:25:01.690Z,21.40
2022-10-24T23:27:38.710Z,21.50
2022-10-24T23:30:22.262Z,21.50
2022-10-24T23:32:55.363Z,21.50
2022-10-24T23:35:28.314Z,21.50
2022-10-24T23:38:01.273Z,21.50
2022-10-24T23:40:36.546Z,21.50
2022-10-24T23:43:16.473Z,21.50
2022-10-24T23:45:58.474Z,21.50
2022-10-24T23:48:55.826Z,21.50
2022-10-24T23:51:36.184Z,21.60
2022-10-24T23:54:12.296Z,21.60
2022-10-24T23:56:45.310Z,21.60
2022-10-24T23:59:17.830Z,21.60
